createdAt,value
2023-05-25T00:01:00.454Z,8.53
2023-05-25T00:03:31.083Z,5.87
2023-05-25T00:06:01.926Z,8.33
2023-05-25T00:08:30.786Z,13.30
2023-05-25T00:10:58.230Z,7.67
2023-05-25T00:13:25.833Z,6.90
2023-05-25T00:15:53.293Z,6.70
2023-05-25T00:18:20.682Z,6.03
2023-05-25T00:20:48.135Z,8.00
2023-05-25T00:23:15.557Z,6.90
2023-05-25T00:25:44.688Z,6.73
2023-05-25T00:28:12.726Z,7.20
2023-05-25T00:30:40.348Z,8.27
2023-05-25T00:33:10.396Z,5.97
2023-05-25T00:35:38.544Z,5.53
2023-05-25T00:38:06.020Z,8.67
2023-05-25T00:40:33.880Z,8.43
2023-05-25T00:43:03.099Z,6.83
2023-05-25T00:45:30.592Z,5.87
2023-05-25T00:47:58.420Z,9.90
2023-05-25T00:50:36.176Z,5.10
2023-05-25T00:53:03.640Z,6.93
2023-05-25T00:55:32.429Z,7.77
2023-05-25T00:58:01.686Z,7.93
2023-05-25T01:00:31.563Z,6.80
2023-05-25T01:02:59.976Z,6.60
2023-05-25T01:05:29.444Z,9.67
2023-05-25T01:07:57.992Z,10.43
2023-05-25T01:10:25.830Z,5.67
2023-05-25T01:12:54.268Z,7.70
2023-05-25T01:15:21.754Z,6.47
2023-05-25T01:17:54.078Z,8.97
2023-05-25T01:20:21.706Z,5.60
2023-05-25T01:22:52.428Z,6.93
2023-05-25T01:25:22.554Z,6.20
2023-05-25T01:27:52.447Z,6.50
2023-05-25T01:30:20.420Z,8.87
2023-05-25T01:32:48.397Z,5.87
2023-05-25T01:35:16.434Z,6.40
2023-05-25T01:37:46.353Z,6.90
2023-05-25T01:40:16.141Z,8.43
2023-05-25T01:42:43.592Z,8.20
2023-05-25T01:45:11.675Z,8.47
2023-05-25T01:47:43.568Z,6.53
2023-05-25T01:50:13.327Z,7.00
2023-05-25T01:52:45.081Z,9.07
2023-05-25T01:55:13.470Z,7.23
2023-05-25T01:57:44.238Z,9.37
2023-05-25T02:00:12.805Z,8.50
2023-05-25T02:02:43.708Z,5.80
2023-05-25T02:05:11.996Z,6.93
2023-05-25T02:07:39.444Z,8.37
2023-05-25T02:10:07.448Z,6.80
2023-05-25T02:12:34.995Z,8.53
2023-05-25T02:15:04.497Z,6.43
2023-05-25T02:17:32.021Z,10.23
2023-05-25T02:20:00.002Z,6.63
2023-05-25T02:22:27.832Z,9.77
2023-05-25T02:24:55.251Z,6.33
2023-05-25T02:27:23.196Z,7.07
2023-05-25T02:29:50.737Z,8.27
2023-05-25T02:32:19.594Z,6.40
2023-05-25T02:34:47.726Z,7.33
2023-05-25T02:37:15.291Z,6.53
2023-05-25T02:39:42.944Z,6.23
2023-05-25T02:42:10.373Z,8.00
2023-05-25T02:44:37.875Z,6.80
2023-05-25T02:47:06.675Z,9.80
2023-05-25T02:49:35.686Z,10.80
2023-05-25T02:52:03.119Z,7.60
2023-05-25T02:54:30.585Z,6.80
2023-05-25T02:56:58.770Z,7.67
2023-05-25T02:59:26.448Z,7.77
2023-05-25T03:01:53.930Z,7.23
2023-05-25T03:04:21.871Z,9.13
2023-05-25T03:06:50.782Z,7.90
2023-05-25T03:09:19.717Z,6.73
2023-05-25T03:11:49.830Z,6.70
2023-05-25T03:14:19.946Z,12.27
2023-05-25T03:16:55.030Z,11.33
2023-05-25T03:19:24.138Z,7.47
2023-05-25T03:21:52.932Z,6.80
2023-05-25T03:24:20.497Z,8.47
2023-05-25T03:26:48.554Z,8.13
2023-05-25T03:29:16.867Z,9.63
2023-05-25T03:31:44.446Z,7.87
2023-05-25T03:34:12.667Z,6.60
2023-05-25T03:36:40.127Z,6.50
2023-05-25T03:39:10.091Z,7.00
2023-05-25T03:41:37.630Z,6.57
2023-05-25T03:44:05.148Z,8.87
2023-05-25T03:46:34.009Z,7.10
2023-05-25T03:49:01.565Z,6.60
2023-05-25T03:51:29.431Z,7.93
2023-05-25T03:53:56.856Z,7.87
2023-05-25T03:56:26.396Z,9.37
2023-05-25T03:58:53.849Z,8.23
2023-05-25T04:01:21.352Z,6.30
2023-05-25T04:03:48.965Z,7.70
2023-05-25T04:06:19.421Z,7.93
2023-05-25T04:08:47.855Z,9.90
2023-05-25T04:11:15.281Z,9.23
2023-05-25T04:13:44.078Z,6.00
2023-05-25T04:16:12.331Z,12.33
2023-05-25T04:18:40.888Z,9.33
2023-05-25T04:21:08.339Z,8.17
2023-05-25T04:23:36.002Z,9.00
2023-05-25T04:26:05.902Z,8.30
2023-05-25T04:28:33.581Z,8.63
2023-05-25T04:31:16.458Z,6.47
2023-05-25T04:34:09.564Z,8.40
2023-05-25T04:36:43.058Z,6.53
2023-05-25T04:39:11.332Z,12.30
2023-05-25T04:41:43.998Z,8.23
2023-05-25T04:44:13.794Z,7.47
2023-05-25T04:46:49.586Z,8.10
2023-05-25T04:49:22.672Z,9.20
2023-05-25T04:51:50.184Z,7.77
2023-05-25T04:54:18.201Z,8.63
2023-05-25T04:56:45.863Z,5.83
2023-05-25T04:59:13.331Z,9.13
2023-05-25T05:01:41.609Z,11.00
2023-05-25T05:04:15.188Z,6.90
2023-05-25T05:06:42.879Z,6.57
2023-05-25T05:09:14.950Z,6.17
2023-05-25T05:11:43.234Z,7.83
2023-05-25T05:14:10.730Z,5.90
2023-05-25T05:16:38.216Z,6.23
2023-05-25T05:19:05.710Z,7.43
2023-05-25T05:21:34.527Z,8.13
2023-05-25T05:24:05.233Z,7.70
2023-05-25T05:26:41.310Z,10.50
2023-05-25T05:29:20.414Z,11.07
2023-05-25T05:31:48.010Z,7.07
2023-05-25T05:34:15.616Z,7.17
2023-05-25T05:36:56.568Z,5.80
2023-05-25T05:39:25.981Z,6.80
2023-05-25T05:41:53.483Z,8.27
2023-05-25T05:44:21.466Z,7.17
2023-05-25T05:46:49.095Z,12.30
2023-05-25T05:49:16.755Z,6.50
2023-05-25T05:51:45.728Z,8.43
2023-05-25T05:54:13.198Z,6.90
2023-05-25T05:56:40.764Z,6.80
2023-05-25T05:59:08.340Z,8.63
2023-05-25T06:01:36.567Z,6.87
2023-05-25T06:04:06.437Z,6.30
2023-05-25T06:06:34.903Z,9.70
2023-05-25T06:09:06.543Z,7.27
2023-05-25T06:11:35.400Z,8.83
2023-05-25T06:14:03.066Z,7.47
2023-05-25T06:16:30.999Z,7.70
2023-05-25T06:18:58.568Z,7.07
2023-05-25T06:21:26.117Z,8.20
2023-05-25T06:23:53.602Z,7.73
2023-05-25T06:26:23.583Z,9.50
2023-05-25T06:28:51.243Z,7.43
2023-05-25T06:31:19.156Z,10.57
2023-05-25T06:33:46.701Z,8.67
2023-05-25T06:36:15.892Z,7.87
2023-05-25T06:38:44.085Z,6.93
2023-05-25T06:41:14.920Z,9.00
2023-05-25T06:43:44.546Z,9.37
2023-05-25T06:46:19.972Z,8.27
2023-05-25T06:48:47.561Z,7.80
2023-05-25T06:51:15.004Z,9.67
2023-05-25T06:53:42.441Z,10.97
2023-05-25T06:56:09.884Z,9.93
2023-05-25T06:58:37.316Z,8.67
2023-05-25T07:01:06.484Z,10.10
2023-05-25T07:03:34.137Z,9.93
2023-05-25T07:06:01.577Z,8.00
2023-05-25T07:08:29.267Z,8.87
2023-05-25T07:10:56.749Z,8.40
2023-05-25T07:13:25.268Z,9.57
2023-05-25T07:15:53.061Z,8.37
2023-05-25T07:18:21.991Z,10.07
2023-05-25T07:20:49.445Z,9.47
2023-05-25T07:23:16.998Z,12.73
2023-05-25T07:25:44.696Z,11.17
2023-05-25T07:28:12.360Z,9.80
2023-05-25T07:30:41.259Z,9.13
2023-05-25T07:33:08.727Z,9.27
2023-05-25T07:35:37.538Z,8.80
2023-05-25T07:38:05.413Z,8.50
2023-05-25T07:40:32.902Z,8.73
2023-05-25T07:43:00.340Z,9.87
2023-05-25T07:45:27.935Z,10.03
2023-05-25T07:47:55.717Z,11.43
2023-05-25T07:50:23.584Z,10.43
2023-05-25T07:52:52.505Z,8.40
2023-05-25T07:55:20.354Z,8.30
2023-05-25T07:57:47.850Z,9.37
2023-05-25T08:00:15.578Z,8.17
2023-05-25T08:02:43.088Z,9.27
2023-05-25T08:05:10.885Z,9.37
2023-05-25T08:07:40.591Z,9.20
2023-05-25T08:10:10.786Z,11.63
2023-05-25T08:12:47.178Z,9.03
2023-05-25T08:15:15.931Z,9.33
2023-05-25T08:17:43.520Z,8.83
2023-05-25T08:20:11.464Z,8.27
2023-05-25T08:22:38.950Z,9.50
2023-05-25T08:25:06.755Z,9.17
2023-05-25T08:27:36.200Z,8.00
2023-05-25T08:30:05.717Z,8.33
2023-05-25T08:32:33.247Z,9.20
2023-05-25T08:35:01.634Z,10.00
2023-05-25T08:37:29.286Z,10.13
2023-05-25T08:39:56.754Z,8.20
2023-05-25T08:42:24.570Z,10.20
2023-05-25T08:44:53.356Z,8.60
2023-05-25T08:47:22.900Z,10.10
2023-05-25T08:49:50.936Z,9.43
2023-05-25T08:52:20.896Z,8.23
2023-05-25T08:54:50.252Z,8.63
2023-05-25T08:57:21.132Z,9.63
2023-05-25T08:59:52.938Z,8.60
2023-05-25T09:02:30.127Z,8.53
2023-05-25T09:04:58.952Z,9.93
2023-05-25T09:07:27.027Z,8.70
2023-05-25T09:09:55.077Z,8.83
2023-05-25T09:12:23.072Z,10.27
2023-05-25T09:14:51.096Z,9.00
2023-05-25T09:17:19.951Z,9.23
2023-05-25T09:19:48.813Z,9.37
2023-05-25T09:22:17.072Z,9.67
2023-05-25T09:24:45.283Z,9.83
2023-05-25T09:27:13.422Z,8.87
2023-05-25T09:29:40.933Z,9.73
2023-05-25T09:32:09.023Z,9.57
2023-05-25T09:34:36.595Z,9.83
2023-05-25T09:37:11.813Z,8.13
2023-05-25T09:39:40.780Z,9.40
2023-05-25T09:42:08.362Z,9.00
2023-05-25T09:44:35.861Z,8.90
2023-05-25T09:47:03.394Z,8.63
2023-05-25T09:49:30.829Z,11.33
2023-05-25T09:51:58.347Z,10.73
2023-05-25T09:54:27.326Z,8.60
2023-05-25T09:56:55.082Z,9.63
2023-05-25T09:59:22.891Z,8.60
2023-05-25T10:01:51.953Z,8.83
2023-05-25T10:04:19.501Z,8.17
2023-05-25T10:06:49.643Z,8.70
2023-05-25T10:09:19.119Z,9.20
2023-05-25T10:11:48.994Z,9.87
2023-05-25T10:14:20.863Z,11.73
2023-05-25T10:16:50.276Z,8.90
2023-05-25T10:19:21.843Z,12.10
2023-05-25T10:21:52.624Z,8.97
2023-05-25T10:24:25.449Z,9.47
2023-05-25T10:26:55.264Z,8.13
2023-05-25T10:29:24.815Z,8.73
2023-05-25T10:31:52.657Z,9.43
2023-05-25T10:34:20.480Z,7.93
2023-05-25T10:36:48.878Z,9.77
2023-05-25T10:39:17.095Z,7.47
2023-05-25T10:41:44.741Z,8.37
2023-05-25T10:44:14.150Z,8.67
2023-05-25T10:46:42.206Z,10.97
2023-05-25T10:49:11.165Z,8.67
2023-05-25T10:51:39.037Z,7.83
2023-05-25T10:54:06.748Z,8.93
2023-05-25T10:56:34.251Z,8.73
2023-05-25T10:59:02.065Z,8.50
2023-05-25T11:01:33.467Z,9.10
2023-05-25T11:04:15.470Z,8.77
2023-05-25T11:07:01.644Z,8.97
2023-05-25T11:09:31.385Z,9.50
2023-05-25T11:12:03.655Z,8.83
2023-05-25T11:14:32.103Z,9.70
2023-05-25T11:17:07.938Z,8.93
2023-05-25T11:19:47.854Z,8.63
2023-05-25T11:22:17.766Z,8.70
2023-05-25T11:24:46.017Z,8.70
2023-05-25T11:27:13.889Z,8.87
2023-05-25T11:29:41.832Z,9.00
2023-05-25T11:32:16.759Z,9.03
2023-05-25T11:34:46.409Z,10.17
2023-05-25T11:37:16.005Z,9.53
2023-05-25T11:39:44.547Z,9.17
2023-05-25T11:42:13.450Z,9.33
2023-05-25T11:44:41.431Z,9.57
2023-05-25T11:47:09.960Z,10.03
2023-05-25T11:49:41.767Z,8.83
2023-05-25T11:52:09.295Z,9.97
2023-05-25T11:54:36.939Z,9.80
2023-05-25T11:57:04.636Z,11.60
2023-05-25T11:59:33.336Z,10.07
2023-05-25T12:02:01.612Z,9.77
2023-05-25T12:04:29.501Z,10.87
2023-05-25T12:07:04.796Z,11.23
2023-05-25T12:09:32.563Z,11.63
2023-05-25T12:12:00.702Z,11.57
2023-05-25T12:14:28.156Z,11.17
2023-05-25T12:16:56.081Z,11.10
2023-05-25T12:19:23.697Z,10.43
2023-05-25T12:21:51.698Z,11.27
2023-05-25T12:24:20.827Z,11.57
2023-05-25T12:26:48.900Z,11.30
2023-05-25T12:29:16.495Z,11.63
2023-05-25T12:31:44.008Z,12.43
2023-05-25T12:34:12.109Z,13.90
2023-05-25T12:36:40.704Z,11.80
2023-05-25T12:39:09.216Z,15.00
2023-05-25T12:41:44.831Z,12.80
2023-05-25T12:44:19.354Z,14.30
2023-05-25T12:46:46.881Z,13.60
2023-05-25T12:49:27.836Z,11.27
2023-05-25T12:51:55.330Z,11.30
2023-05-25T12:54:35.904Z,14.03
2023-05-25T12:57:06.339Z,12.43
2023-05-25T12:59:34.455Z,12.47
2023-05-25T13:02:02.116Z,12.57
2023-05-25T13:04:29.656Z,11.10
2023-05-25T13:06:57.093Z,12.17
2023-05-25T13:09:25.152Z,12.70
2023-05-25T13:11:52.653Z,12.57
2023-05-25T13:14:21.880Z,11.57
2023-05-25T13:16:49.525Z,12.30
2023-05-25T13:19:16.970Z,13.87
2023-05-25T13:21:44.695Z,12.37
2023-05-25T13:24:12.234Z,11.37
2023-05-25T13:26:39.773Z,10.10
2023-05-25T13:29:07.241Z,10.70
2023-05-25T13:31:36.048Z,10.03
2023-05-25T13:34:03.906Z,11.90
2023-05-25T13:36:32.515Z,12.67
2023-05-25T13:39:00.174Z,11.50
2023-05-25T13:41:28.170Z,10.57
2023-05-25T13:43:55.747Z,12.17
2023-05-25T13:46:34.299Z,10.80
2023-05-25T13:49:03.846Z,10.83
2023-05-25T13:51:31.337Z,11.47
2023-05-25T13:53:58.829Z,11.93
2023-05-25T13:56:26.255Z,11.97
2023-05-25T13:58:53.965Z,12.05
2023-05-25T14:01:21.608Z,11.30
2023-05-25T14:03:49.274Z,11.38
2023-05-25T14:06:18.322Z,9.63
2023-05-25T14:08:45.704Z,11.03
2023-05-25T14:11:13.160Z,11.25
2023-05-25T14:13:40.701Z,10.70
2023-05-25T14:16:08.829Z,10.37
2023-05-25T14:18:36.281Z,10.60
2023-05-25T14:21:03.815Z,10.67
2023-05-25T14:23:32.567Z,10.53
2023-05-25T14:25:59.988Z,11.03
2023-05-25T14:28:27.472Z,10.10
2023-05-25T14:30:54.888Z,10.90
2023-05-25T14:33:22.381Z,14.53
2023-05-25T14:35:49.889Z,11.02
2023-05-25T14:38:17.375Z,10.15
2023-05-25T14:40:46.182Z,10.17
2023-05-25T14:43:13.624Z,11.23
2023-05-25T14:45:41.099Z,12.77
2023-05-25T14:48:16.635Z,10.20
2023-05-25T14:50:44.953Z,11.93
2023-05-25T14:53:12.673Z,10.50
2023-05-25T14:55:40.909Z,11.00
2023-05-25T14:58:09.740Z,9.73
2023-05-25T15:00:37.117Z,11.43
2023-05-25T15:03:04.653Z,10.90
2023-05-25T15:05:32.198Z,10.10
2023-05-25T15:07:59.878Z,9.90
2023-05-25T15:10:27.346Z,11.20
2023-05-25T15:12:54.804Z,11.67
2023-05-25T15:15:23.655Z,9.90
2023-05-25T15:17:51.210Z,10.60
2023-05-25T15:20:18.704Z,10.33
2023-05-25T15:22:46.525Z,9.97
2023-05-25T15:25:19.038Z,9.20
2023-05-25T15:27:52.204Z,10.10
2023-05-25T15:30:19.862Z,10.13
2023-05-25T15:32:48.652Z,9.33
2023-05-25T15:35:16.114Z,9.87
2023-05-25T15:37:43.999Z,8.53
2023-05-25T15:40:11.980Z,9.87
2023-05-25T15:42:39.374Z,11.30
2023-05-25T15:45:08.036Z,9.90
2023-05-25T15:47:35.641Z,8.73
2023-05-25T15:50:04.618Z,9.97
2023-05-25T15:52:32.072Z,9.10
2023-05-25T15:54:59.494Z,9.87
2023-05-25T15:57:26.903Z,9.63
2023-05-25T15:59:54.785Z,10.13
2023-05-25T16:02:23.011Z,9.27
2023-05-25T16:04:50.462Z,10.00
2023-05-25T16:07:19.227Z,9.57
2023-05-25T16:09:46.647Z,11.03
2023-05-25T16:12:14.077Z,11.23
2023-05-25T16:14:41.695Z,8.93
2023-05-25T16:17:09.166Z,8.03
2023-05-25T16:19:36.552Z,8.47
2023-05-25T16:22:04.018Z,8.80
2023-05-25T16:24:32.799Z,8.93
2023-05-25T16:27:00.722Z,8.83
2023-05-25T16:29:28.158Z,9.00
2023-05-25T16:31:55.888Z,8.40
2023-05-25T16:34:23.672Z,8.30
2023-05-25T16:36:51.170Z,9.23
2023-05-25T16:39:18.824Z,10.70
2023-05-25T16:41:49.504Z,8.63
2023-05-25T16:44:18.257Z,8.70
2023-05-25T16:46:45.758Z,8.00
2023-05-25T16:49:13.195Z,8.53
2023-05-25T16:51:40.714Z,11.60
2023-05-25T16:54:08.748Z,8.83
2023-05-25T16:56:36.484Z,10.20
2023-05-25T16:59:05.263Z,8.67
2023-05-25T17:01:32.700Z,7.73
2023-05-25T17:04:00.256Z,10.07
2023-05-25T17:06:27.903Z,8.70
2023-05-25T17:08:55.677Z,9.30
2023-05-25T17:11:26.209Z,7.67
2023-05-25T17:13:53.954Z,8.53
2023-05-25T17:16:22.789Z,8.63
2023-05-25T17:18:50.300Z,8.40
2023-05-25T17:21:17.743Z,7.87
2023-05-25T17:23:46.629Z,7.93
2023-05-25T17:26:14.270Z,8.67
2023-05-25T17:28:41.734Z,7.47
2023-05-25T17:31:09.650Z,9.20
2023-05-25T17:33:38.853Z,7.37
2023-05-25T17:36:06.507Z,6.70
2023-05-25T17:38:36.787Z,7.07
2023-05-25T17:41:04.286Z,7.10
2023-05-25T17:43:31.759Z,7.83
2023-05-25T17:46:00.027Z,7.83
2023-05-25T17:48:27.895Z,7.40
2023-05-25T17:50:56.662Z,7.93
2023-05-25T17:53:24.125Z,7.70
2023-05-25T17:55:51.593Z,7.40
2023-05-25T17:58:19.048Z,7.50
2023-05-25T18:00:46.515Z,6.87
2023-05-25T18:03:14.021Z,6.30
2023-05-25T18:05:41.504Z,7.33
2023-05-25T18:08:10.256Z,6.70
2023-05-25T18:10:37.712Z,7.07
2023-05-25T18:13:05.121Z,6.47
2023-05-25T18:15:32.755Z,6.57
2023-05-25T18:18:00.589Z,7.10
2023-05-25T18:20:28.260Z,7.27
2023-05-25T18:22:56.256Z,7.20
2023-05-25T18:25:25.032Z,8.27
2023-05-25T18:27:52.486Z,6.50
2023-05-25T18:30:20.015Z,6.30
2023-05-25T18:32:47.476Z,6.47
2023-05-25T18:35:14.988Z,7.37
2023-05-25T18:37:42.456Z,7.53
2023-05-25T18:40:11.577Z,7.03
2023-05-25T18:42:40.404Z,5.83
2023-05-25T18:45:08.163Z,6.10
2023-05-25T18:47:35.778Z,6.50
2023-05-25T18:50:03.358Z,6.73
2023-05-25T18:52:30.858Z,6.33
2023-05-25T18:54:58.287Z,8.63
2023-05-25T18:57:25.715Z,6.67
2023-05-25T18:59:54.445Z,10.40
2023-05-25T19:02:22.109Z,6.80
2023-05-25T19:04:49.646Z,6.30
2023-05-25T19:07:17.108Z,8.03
2023-05-25T19:09:44.552Z,7.43
2023-05-25T19:12:11.975Z,8.30
2023-05-25T19:14:39.376Z,7.50
2023-05-25T19:17:08.450Z,8.83
2023-05-25T19:19:35.866Z,8.83
2023-05-25T19:22:03.310Z,8.53
2023-05-25T19:24:30.815Z,7.77
2023-05-25T19:26:58.519Z,7.97
2023-05-25T19:29:26.082Z,7.70
2023-05-25T19:31:53.557Z,7.63
2023-05-25T19:34:22.483Z,8.10
2023-05-25T19:36:59.632Z,8.23
2023-05-25T19:39:31.662Z,9.63
2023-05-25T19:41:59.579Z,7.27
2023-05-25T19:44:27.009Z,7.50
2023-05-25T19:46:54.469Z,7.77
2023-05-25T19:49:23.238Z,8.07
2023-05-25T19:51:50.715Z,8.20
2023-05-25T19:54:18.144Z,8.00
2023-05-25T19:56:45.611Z,9.57
2023-05-25T19:59:13.054Z,8.00
2023-05-25T20:01:40.570Z,7.47
2023-05-25T20:04:08.057Z,7.47
2023-05-25T20:06:37.449Z,8.10
2023-05-25T20:09:04.920Z,8.53
2023-05-25T20:11:32.394Z,8.87
2023-05-25T20:13:59.834Z,8.67
2023-05-25T20:16:27.433Z,9.17
2023-05-25T20:18:54.908Z,8.83
2023-05-25T20:21:22.369Z,8.03
2023-05-25T20:23:51.617Z,8.57
2023-05-25T20:26:19.047Z,8.80
2023-05-25T20:28:46.465Z,8.50
2023-05-25T20:31:13.888Z,9.63
2023-05-25T20:33:41.325Z,9.67
2023-05-25T20:36:08.842Z,8.63
2023-05-25T20:38:36.266Z,8.93
2023-05-25T20:41:05.157Z,9.50
2023-05-25T20:43:32.859Z,9.50
2023-05-25T20:46:00.583Z,9.40
2023-05-25T20:48:28.040Z,8.67
2023-05-25T20:50:55.482Z,10.27
2023-05-25T20:53:22.898Z,8.67
2023-05-25T20:55:50.299Z,8.97
2023-05-25T20:58:19.122Z,8.83
2023-05-25T21:00:47.298Z,9.23
2023-05-25T21:03:14.798Z,8.40
2023-05-25T21:05:42.309Z,8.60
2023-05-25T21:08:09.763Z,9.23
2023-05-25T21:10:37.226Z,8.70
2023-05-25T21:13:04.695Z,9.27
2023-05-25T21:15:33.479Z,8.37
2023-05-25T21:18:03.155Z,8.97
2023-05-25T21:20:30.739Z,9.20
2023-05-25T21:22:58.262Z,9.80
2023-05-25T21:25:25.745Z,10.47
2023-05-25T21:27:55.404Z,10.97
2023-05-25T21:30:24.588Z,10.00
2023-05-25T21:32:53.631Z,11.70
2023-05-25T21:35:21.308Z,13.30
2023-05-25T21:37:48.756Z,12.73
2023-05-25T21:40:16.319Z,12.27
2023-05-25T21:42:43.701Z,11.03
2023-05-25T21:45:11.204Z,10.80
2023-05-25T21:47:38.692Z,11.83
2023-05-25T21:50:07.969Z,12.93
2023-05-25T21:52:35.409Z,11.67
2023-05-25T21:55:02.880Z,12.37
2023-05-25T21:57:30.363Z,12.43
2023-05-25T21:59:57.763Z,12.80
2023-05-25T22:02:25.552Z,13.47
2023-05-25T22:04:53.104Z,13.10
2023-05-25T22:07:22.102Z,13.47
2023-05-25T22:09:49.614Z,13.70
2023-05-25T22:12:17.093Z,12.87
2023-05-25T22:14:44.555Z,14.33
2023-05-25T22:17:12.054Z,15.33
2023-05-25T22:19:39.611Z,15.93
2023-05-25T22:22:07.065Z,13.67
2023-05-25T22:24:35.872Z,13.27
2023-05-25T22:27:03.747Z,13.07
2023-05-25T22:29:31.200Z,15.27
2023-05-25T22:31:58.616Z,12.30
2023-05-25T22:34:26.042Z,12.53
2023-05-25T22:36:53.482Z,12.60
2023-05-25T22:39:20.946Z,12.77
2023-05-25T22:41:49.669Z,12.33
2023-05-25T22:44:17.101Z,12.53
2023-05-25T22:46:44.563Z,12.80
2023-05-25T22:49:12.000Z,12.77
2023-05-25T22:51:39.390Z,13.50
2023-05-25T22:54:06.845Z,14.20
2023-05-25T22:56:36.021Z,13.50
2023-05-25T22:59:04.839Z,14.47
2023-05-25T23:01:32.262Z,14.30
2023-05-25T23:04:00.296Z,16.00
2023-05-25T23:06:27.796Z,13.30
2023-05-25T23:08:55.311Z,13.50
2023-05-25T23:11:22.785Z,13.40
2023-05-25T23:13:50.512Z,13.20
2023-05-25T23:16:19.973Z,12.87
2023-05-25T23:18:47.500Z,12.40
2023-05-25T23:21:14.894Z,12.70
2023-05-25T23:23:42.333Z,12.37
2023-05-25T23:26:09.802Z,12.00
2023-05-25T23:28:37.294Z,12.50
2023-05-25T23:31:04.954Z,11.63
2023-05-25T23:33:33.718Z,12.50
2023-05-25T23:36:01.498Z,12.43
2023-05-25T23:38:28.924Z,11.77
2023-05-25T23:40:56.352Z,11.50
2023-05-25T23:43:23.900Z,12.47
2023-05-25T23:45:51.405Z,13.00
2023-05-25T23:48:18.845Z,13.03
2023-05-25T23:50:47.631Z,13.03
2023-05-25T23:53:15.108Z,12.27
2023-05-25T23:55:42.651Z,12.47
2023-05-25T23:58:10.110Z,12.33
